Terminal Aerodrome Forecast
Issued by NWS

Home | Current Version | Previous Version | Text Only | Print | Product List | Glossary On
Versions: 1 2 3 4 5 6 7 8 9 10 11 12 13 14 15
000
FTUS43 KDVN 201720
TAFCID
TAF
KCID 201720Z 2018/2118 20006KT P6SM SCT250
     FM202300 17004KT 6SM BR BKN015
     FM210100 12003KT 2SM -DZ BR OVC008
     FM210800 10004KT 1/2SM -DZ FG OVC004
     FM211600 09006KT 1SM -RA BR OVC008=

USA.gov is the U.S. government's official web portal to all federal, state and local government web resources and services.